sensor_id;sensor_type;location;lat;lon;timestamp;temperature;humidity
5461;DHT22;2753;49.196;8.286;2022-09-09T00:04:20;17.80;99.90
5461;DHT22;2753;49.196;8.286;2022-09-09T00:09:17;17.70;99.90
5461;DHT22;2753;49.196;8.286;2022-09-09T00:14:54;17.70;99.90
5461;DHT22;2753;49.196;8.286;2022-09-09T00:17:38;17.70;99.90
5461;DHT22;2753;49.196;8.286;2022-09-09T00:20:14;17.80;99.90
5461;DHT22;2753;49.196;8.286;2022-09-09T00:22:48;17.80;99.90
5461;DHT22;2753;49.196;8.286;2022-09-09T00:25:23;17.80;99.90
5461;DHT22;2753;49.196;8.286;2022-09-09T00:27:52;17.80;99.90
5461;DHT22;2753;49.196;8.286;2022-09-09T00:30:18;17.60;99.90
5461;DHT22;2753;49.196;8.286;2022-09-09T00:32:49;17.60;99.90
5461;DHT22;2753;49.196;8.286;2022-09-09T00:35:29;17.60;99.90
5461;DHT22;2753;49.196;8.286;2022-09-09T00:38:00;17.50;99.90
5461;DHT22;2753;49.196;8.286;2022-09-09T00:40:33;17.60;99.90
5461;DHT22;2753;49.196;8.286;2022-09-09T00:43:29;17.70;99.90
5461;DHT22;2753;49.196;8.286;2022-09-09T00:46:17;17.70;99.90
5461;DHT22;2753;49.196;8.286;2022-09-09T00:54:55;17.60;99.90
5461;DHT22;2753;49.196;8.286;2022-09-09T00:57:29;17.50;99.90
5461;DHT22;2753;49.196;8.286;2022-09-09T01:10:54;17.40;99.90
5461;DHT22;2753;49.196;8.286;2022-09-09T01:13:32;17.40;99.90
5461;DHT22;2753;49.196;8.286;2022-09-09T01:16:00;17.40;99.90
5461;DHT22;2753;49.196;8.286;2022-09-09T01:18:49;17.50;99.90
5461;DHT22;2753;49.196;8.286;2022-09-09T01:24:27;17.40;99.90
5461;DHT22;2753;49.196;8.286;2022-09-09T01:26:59;17.40;99.90
5461;DHT22;2753;49.196;8.286;2022-09-09T01:29:26;17.40;99.90
5461;DHT22;2753;49.196;8.286;2022-09-09T01:31:59;17.40;99.90
5461;DHT22;2753;49.196;8.286;2022-09-09T01:34:29;17.30;99.90
5461;DHT22;2753;49.196;8.286;2022-09-09T01:37:08;17.30;99.90
5461;DHT22;2753;49.196;8.286;2022-09-09T01:39:36;17.30;99.90
5461;DHT22;2753;49.196;8.286;2022-09-09T01:42:03;17.30;99.90
5461;DHT22;2753;49.196;8.286;2022-09-09T01:44:30;17.40;99.90
5461;DHT22;2753;49.196;8.286;2022-09-09T01:46:57;17.30;99.90
5461;DHT22;2753;49.196;8.286;2022-09-09T01:49:23;17.40;99.90
5461;DHT22;2753;49.196;8.286;2022-09-09T01:51:52;17.30;99.90
5461;DHT22;2753;49.196;8.286;2022-09-09T01:54:20;17.30;99.90
5461;DHT22;2753;49.196;8.286;2022-09-09T01:59:44;17.20;99.90
5461;DHT22;2753;49.196;8.286;2022-09-09T02:05:54;17.20;99.90
5461;DHT22;2753;49.196;8.286;2022-09-09T02:07:49;17.20;99.90
5461;DHT22;2753;49.196;8.286;2022-09-09T02:10:25;17.20;99.90
5461;DHT22;2753;49.196;8.286;2022-09-09T02:13:03;17.20;99.90
5461;DHT22;2753;49.196;8.286;2022-09-09T02:15:43;17.10;99.90
5461;DHT22;2753;49.196;8.286;2022-09-09T02:18:13;17.10;99.90
5461;DHT22;2753;49.196;8.286;2022-09-09T02:20:42;17.10;99.90
5461;DHT22;2753;49.196;8.286;2022-09-09T02:23:09;17.10;99.90
5461;DHT22;2753;49.196;8.286;2022-09-09T02:25:37;17.10;99.90
5461;DHT22;2753;49.196;8.286;2022-09-09T02:28:06;17.20;99.90
5461;DHT22;2753;49.196;8.286;2022-09-09T02:30:34;17.10;99.90
5461;DHT22;2753;49.196;8.286;2022-09-09T02:33:03;17.10;99.90
5461;DHT22;2753;49.196;8.286;2022-09-09T02:35:32;17.10;99.90
5461;DHT22;2753;49.196;8.286;2022-09-09T02:38:05;17.10;99.90
5461;DHT22;2753;49.196;8.286;2022-09-09T02:40:31;17.10;99.90
5461;DHT22;2753;49.196;8.286;2022-09-09T02:42:57;17.10;99.90
5461;DHT22;2753;49.196;8.286;2022-09-09T02:45:25;17.10;99.90
5461;DHT22;2753;49.196;8.286;2022-09-09T02:50:23;17.10;99.90
5461;DHT22;2753;49.196;8.286;2022-09-09T02:53:16;17.10;99.90
5461;DHT22;2753;49.196;8.286;2022-09-09T02:56:27;17.00;99.90
5461;DHT22;2753;49.196;8.286;2022-09-09T02:58:34;17.00;99.90
5461;DHT22;2753;49.196;8.286;2022-09-09T03:01:00;16.90;99.90
5461;DHT22;2753;49.196;8.286;2022-09-09T03:03:28;16.90;99.90
5461;DHT22;2753;49.196;8.286;2022-09-09T03:05:54;17.00;99.90
5461;DHT22;2753;49.196;8.286;2022-09-09T03:08:20;17.00;99.90
5461;DHT22;2753;49.196;8.286;2022-09-09T03:10:46;17.10;99.90
5461;DHT22;2753;49.196;8.286;2022-09-09T03:13:11;17.10;99.90
5461;DHT22;2753;49.196;8.286;2022-09-09T03:15:40;17.10;99.90
5461;DHT22;2753;49.196;8.286;2022-09-09T03:18:06;17.10;99.90
5461;DHT22;2753;49.196;8.286;2022-09-09T03:20:32;17.10;99.90
5461;DHT22;2753;49.196;8.286;2022-09-09T03:22:59;17.10;99.90
5461;DHT22;2753;49.196;8.286;2022-09-09T03:25:25;17.10;99.90
5461;DHT22;2753;49.196;8.286;2022-09-09T03:27:52;17.10;99.90
5461;DHT22;2753;49.196;8.286;2022-09-09T03:30:24;17.00;99.90
5461;DHT22;2753;49.196;8.286;2022-09-09T03:32:50;17.00;99.90
5461;DHT22;2753;49.196;8.286;2022-09-09T03:35:15;16.90;99.90
5461;DHT22;2753;49.196;8.286;2022-09-09T03:37:41;17.00;99.90
5461;DHT22;2753;49.196;8.286;2022-09-09T03:40:07;17.00;99.90
5461;DHT22;2753;49.196;8.286;2022-09-09T03:42:35;17.00;99.90
5461;DHT22;2753;49.196;8.286;2022-09-09T03:45:03;16.90;99.90
5461;DHT22;2753;49.196;8.286;2022-09-09T03:47:29;17.00;99.90
5461;DHT22;2753;49.196;8.286;2022-09-09T03:49:55;17.00;99.90
5461;DHT22;2753;49.196;8.286;2022-09-09T03:52:21;17.00;99.90
5461;DHT22;2753;49.196;8.286;2022-09-09T03:54:50;17.00;99.90
5461;DHT22;2753;49.196;8.286;2022-09-09T03:57:16;17.00;99.90
5461;DHT22;2753;49.196;8.286;2022-09-09T03:59:43;17.00;99.90
5461;DHT22;2753;49.196;8.286;2022-09-09T04:02:09;17.00;99.90
5461;DHT22;2753;49.196;8.286;2022-09-09T04:04:34;16.90;99.90
5461;DHT22;2753;49.196;8.286;2022-09-09T04:07:00;16.90;99.90
5461;DHT22;2753;49.196;8.286;2022-09-09T04:09:26;16.90;99.90
5461;DHT22;2753;49.196;8.286;2022-09-09T04:11:52;16.90;99.90
5461;DHT22;2753;49.196;8.286;2022-09-09T04:14:20;16.90;99.90
5461;DHT22;2753;49.196;8.286;2022-09-09T04:16:45;16.90;99.90
5461;DHT22;2753;49.196;8.286;2022-09-09T04:19:12;16.90;99.90
5461;DHT22;2753;49.196;8.286;2022-09-09T04:21:42;16.90;99.90
5461;DHT22;2753;49.196;8.286;2022-09-09T04:24:08;16.80;99.90
5461;DHT22;2753;49.196;8.286;2022-09-09T04:26:34;16.80;99.90
5461;DHT22;2753;49.196;8.286;2022-09-09T04:29:01;16.80;99.90
5461;DHT22;2753;49.196;8.286;2022-09-09T04:31:27;16.80;99.90
5461;DHT22;2753;49.196;8.286;2022-09-09T04:33:53;16.80;99.90
5461;DHT22;2753;49.196;8.286;2022-09-09T04:36:19;16.90;99.90
5461;DHT22;2753;49.196;8.286;2022-09-09T04:38:45;16.90;99.90
5461;DHT22;2753;49.196;8.286;2022-09-09T04:41:12;16.90;99.90
5461;DHT22;2753;49.196;8.286;2022-09-09T04:43:38;16.90;99.90
5461;DHT22;2753;49.196;8.286;2022-09-09T04:46:05;16.80;99.90
5461;DHT22;2753;49.196;8.286;2022-09-09T04:48:31;16.80;99.90
5461;DHT22;2753;49.196;8.286;2022-09-09T04:50:58;16.80;99.90
5461;DHT22;2753;49.196;8.286;2022-09-09T04:53:25;16.80;99.90
5461;DHT22;2753;49.196;8.286;2022-09-09T04:55:52;16.80;99.90
5461;DHT22;2753;49.196;8.286;2022-09-09T04:58:18;16.90;99.90
5461;DHT22;2753;49.196;8.286;2022-09-09T05:00:43;16.90;99.90
5461;DHT22;2753;49.196;8.286;2022-09-09T05:03:09;16.90;99.90
5461;DHT22;2753;49.196;8.286;2022-09-09T05:05:38;16.90;99.90
5461;DHT22;2753;49.196;8.286;2022-09-09T05:08:05;16.90;99.90
5461;DHT22;2753;49.196;8.286;2022-09-09T05:10:31;16.80;99.90
5461;DHT22;2753;49.196;8.286;2022-09-09T05:12:57;16.80;99.90
5461;DHT22;2753;49.196;8.286;2022-09-09T05:15:23;16.80;99.90
5461;DHT22;2753;49.196;8.286;2022-09-09T05:17:48;16.70;99.90
5461;DHT22;2753;49.196;8.286;2022-09-09T05:20:14;16.70;99.90
5461;DHT22;2753;49.196;8.286;2022-09-09T05:22:40;16.70;99.90
5461;DHT22;2753;49.196;8.286;2022-09-09T05:25:06;16.70;99.90
5461;DHT22;2753;49.196;8.286;2022-09-09T05:27:34;16.60;99.90
5461;DHT22;2753;49.196;8.286;2022-09-09T05:29:59;16.60;99.90
5461;DHT22;2753;49.196;8.286;2022-09-09T05:32:25;16.60;99.90
5461;DHT22;2753;49.196;8.286;2022-09-09T05:34:51;16.70;99.90
5461;DHT22;2753;49.196;8.286;2022-09-09T05:37:18;16.60;99.90
5461;DHT22;2753;49.196;8.286;2022-09-09T05:39:43;16.60;99.90
5461;DHT22;2753;49.196;8.286;2022-09-09T05:42:09;16.60;99.90
5461;DHT22;2753;49.196;8.286;2022-09-09T05:44:35;16.70;99.90
5461;DHT22;2753;49.196;8.286;2022-09-09T05:47:01;16.70;99.90
5461;DHT22;2753;49.196;8.286;2022-09-09T05:49:26;16.70;99.90
5461;DHT22;2753;49.196;8.286;2022-09-09T05:51:52;16.70;99.90
5461;DHT22;2753;49.196;8.286;2022-09-09T05:54:18;16.70;99.90
5461;DHT22;2753;49.196;8.286;2022-09-09T05:56:44;16.70;99.90
5461;DHT22;2753;49.196;8.286;2022-09-09T05:59:10;16.70;99.90
5461;DHT22;2753;49.196;8.286;2022-09-09T06:01:37;16.70;99.90
5461;DHT22;2753;49.196;8.286;2022-09-09T06:04:06;16.70;99.90
5461;DHT22;2753;49.196;8.286;2022-09-09T06:06:34;16.80;99.90
5461;DHT22;2753;49.196;8.286;2022-09-09T06:09:06;16.80;99.90
5461;DHT22;2753;49.196;8.286;2022-09-09T06:11:35;16.80;99.90
5461;DHT22;2753;49.196;8.286;2022-09-09T06:14:02;16.80;99.90
5461;DHT22;2753;49.196;8.286;2022-09-09T06:16:29;16.80;99.90
5461;DHT22;2753;49.196;8.286;2022-09-09T06:18:56;16.90;99.90
5461;DHT22;2753;49.196;8.286;2022-09-09T06:21:29;16.90;99.90
5461;DHT22;2753;49.196;8.286;2022-09-09T06:23:56;16.90;99.90
5461;DHT22;2753;49.196;8.286;2022-09-09T06:26:27;16.90;99.90
5461;DHT22;2753;49.196;8.286;2022-09-09T06:28:54;16.80;99.90
5461;DHT22;2753;49.196;8.286;2022-09-09T06:31:22;16.80;99.90
5461;DHT22;2753;49.196;8.286;2022-09-09T06:33:50;16.80;99.90
5461;DHT22;2753;49.196;8.286;2022-09-09T06:38:48;16.90;99.90
5461;DHT22;2753;49.196;8.286;2022-09-09T06:41:17;16.90;99.90
5461;DHT22;2753;49.196;8.286;2022-09-09T06:43:44;16.90;99.90
5461;DHT22;2753;49.196;8.286;2022-09-09T06:48:39;17.00;99.90
5461;DHT22;2753;49.196;8.286;2022-09-09T06:51:17;17.00;99.90
5461;DHT22;2753;49.196;8.286;2022-09-09T06:53:45;16.90;99.90
5461;DHT22;2753;49.196;8.286;2022-09-09T06:58:40;17.00;99.90
5461;DHT22;2753;49.196;8.286;2022-09-09T07:01:10;17.10;99.90
5461;DHT22;2753;49.196;8.286;2022-09-09T07:03:38;17.10;99.90
5461;DHT22;2753;49.196;8.286;2022-09-09T07:06:05;17.10;99.90
5461;DHT22;2753;49.196;8.286;2022-09-09T07:08:31;17.10;99.90
5461;DHT22;2753;49.196;8.286;2022-09-09T07:11:07;17.10;99.90
5461;DHT22;2753;49.196;8.286;2022-09-09T07:13:34;17.10;99.90
5461;DHT22;2753;49.196;8.286;2022-09-09T07:18:30;17.10;99.90
5461;DHT22;2753;49.196;8.286;2022-09-09T07:20:56;17.20;99.90
5461;DHT22;2753;49.196;8.286;2022-09-09T07:23:23;17.20;99.90
5461;DHT22;2753;49.196;8.286;2022-09-09T07:25:49;17.30;99.90
5461;DHT22;2753;49.196;8.286;2022-09-09T07:28:15;17.30;99.90
5461;DHT22;2753;49.196;8.286;2022-09-09T07:30:41;17.30;99.90
5461;DHT22;2753;49.196;8.286;2022-09-09T07:33:08;17.30;99.90
5461;DHT22;2753;49.196;8.286;2022-09-09T07:35:35;17.40;99.90
5461;DHT22;2753;49.196;8.286;2022-09-09T07:38:02;17.40;99.90
5461;DHT22;2753;49.196;8.286;2022-09-09T07:40:32;17.50;99.90
5461;DHT22;2753;49.196;8.286;2022-09-09T07:42:59;17.50;99.90
5461;DHT22;2753;49.196;8.286;2022-09-09T07:45:25;17.60;99.90
5461;DHT22;2753;49.196;8.286;2022-09-09T07:47:54;17.70;99.90
5461;DHT22;2753;49.196;8.286;2022-09-09T07:50:22;17.70;99.90
5461;DHT22;2753;49.196;8.286;2022-09-09T07:52:49;17.80;99.90
5461;DHT22;2753;49.196;8.286;2022-09-09T07:55:14;17.80;99.90
5461;DHT22;2753;49.196;8.286;2022-09-09T07:57:40;17.80;99.90
5461;DHT22;2753;49.196;8.286;2022-09-09T08:00:07;17.80;99.90
5461;DHT22;2753;49.196;8.286;2022-09-09T08:02:33;17.80;99.90
5461;DHT22;2753;49.196;8.286;2022-09-09T08:04:58;17.90;99.90
5461;DHT22;2753;49.196;8.286;2022-09-09T08:07:24;17.90;99.90
5461;DHT22;2753;49.196;8.286;2022-09-09T08:09:50;17.80;99.90
5461;DHT22;2753;49.196;8.286;2022-09-09T08:12:16;17.80;99.90
5461;DHT22;2753;49.196;8.286;2022-09-09T08:14:42;17.90;99.90
5461;DHT22;2753;49.196;8.286;2022-09-09T08:17:07;17.90;99.90
5461;DHT22;2753;49.196;8.286;2022-09-09T08:19:33;17.90;99.90
5461;DHT22;2753;49.196;8.286;2022-09-09T08:22:02;17.80;99.90
5461;DHT22;2753;49.196;8.286;2022-09-09T08:24:28;17.80;99.90
5461;DHT22;2753;49.196;8.286;2022-09-09T08:26:54;17.90;99.90
5461;DHT22;2753;49.196;8.286;2022-09-09T08:29:22;17.90;99.90
5461;DHT22;2753;49.196;8.286;2022-09-09T08:31:54;17.90;99.90
5461;DHT22;2753;49.196;8.286;2022-09-09T08:34:22;18.00;99.90
5461;DHT22;2753;49.196;8.286;2022-09-09T08:36:49;18.10;99.90
5461;DHT22;2753;49.196;8.286;2022-09-09T08:39:17;18.10;99.90
5461;DHT22;2753;49.196;8.286;2022-09-09T08:55:18;18.50;99.90
5461;DHT22;2753;49.196;8.286;2022-09-09T08:57:43;18.60;99.90
5461;DHT22;2753;49.196;8.286;2022-09-09T09:00:11;18.80;99.90
5461;DHT22;2753;49.196;8.286;2022-09-09T09:05:23;19.10;99.90
5461;DHT22;2753;49.196;8.286;2022-09-09T09:13:10;19.00;99.90
5461;DHT22;2753;49.196;8.286;2022-09-09T09:15:38;19.10;99.90
5461;DHT22;2753;49.196;8.286;2022-09-09T09:18:07;19.10;99.90
5461;DHT22;2753;49.196;8.286;2022-09-09T09:23:28;18.90;99.90
5461;DHT22;2753;49.196;8.286;2022-09-09T09:25:59;18.90;99.90
5461;DHT22;2753;49.196;8.286;2022-09-09T09:28:32;18.80;99.90
5461;DHT22;2753;49.196;8.286;2022-09-09T09:31:04;18.80;99.90
5461;DHT22;2753;49.196;8.286;2022-09-09T09:36:07;18.90;99.90
5461;DHT22;2753;49.196;8.286;2022-09-09T09:38:35;18.80;99.90
5461;DHT22;2753;49.196;8.286;2022-09-09T09:41:01;18.80;99.90
5461;DHT22;2753;49.196;8.286;2022-09-09T09:45:58;18.80;99.90
5461;DHT22;2753;49.196;8.286;2022-09-09T09:48:25;18.90;99.90
5461;DHT22;2753;49.196;8.286;2022-09-09T09:53:33;18.90;99.90
5461;DHT22;2753;49.196;8.286;2022-09-09T09:56:11;19.00;99.90
5461;DHT22;2753;49.196;8.286;2022-09-09T10:06:37;19.10;99.90
5461;DHT22;2753;49.196;8.286;2022-09-09T10:09:17;19.20;99.90
5461;DHT22;2753;49.196;8.286;2022-09-09T10:14:30;19.50;99.90
5461;DHT22;2753;49.196;8.286;2022-09-09T10:19:34;19.70;99.90
5461;DHT22;2753;49.196;8.286;2022-09-09T10:22:25;19.60;99.90
5461;DHT22;2753;49.196;8.286;2022-09-09T10:32:38;19.80;99.90
5461;DHT22;2753;49.196;8.286;2022-09-09T10:35:24;19.90;99.90
5461;DHT22;2753;49.196;8.286;2022-09-09T10:52:10;20.10;99.40
5461;DHT22;2753;49.196;8.286;2022-09-09T11:00:22;20.40;98.50
5461;DHT22;2753;49.196;8.286;2022-09-09T11:02:57;20.50;97.30
5461;DHT22;2753;49.196;8.286;2022-09-09T11:05:44;20.60;97.10
5461;DHT22;2753;49.196;8.286;2022-09-09T11:08:28;20.70;97.10
5461;DHT22;2753;49.196;8.286;2022-09-09T11:11:14;20.80;96.30
5461;DHT22;2753;49.196;8.286;2022-09-09T11:13:51;20.70;96.40
5461;DHT22;2753;49.196;8.286;2022-09-09T11:19:38;20.70;95.60
5461;DHT22;2753;49.196;8.286;2022-09-09T11:25:16;20.80;96.20
5461;DHT22;2753;49.196;8.286;2022-09-09T11:39:11;20.50;96.40
5461;DHT22;2753;49.196;8.286;2022-09-09T11:41:41;20.40;97.60
5461;DHT22;2753;49.196;8.286;2022-09-09T11:44:19;20.30;98.60
5461;DHT22;2753;49.196;8.286;2022-09-09T11:46:49;20.30;99.20
5461;DHT22;2753;49.196;8.286;2022-09-09T11:49:27;20.30;99.90
5461;DHT22;2753;49.196;8.286;2022-09-09T11:51:53;20.30;99.90
5461;DHT22;2753;49.196;8.286;2022-09-09T11:54:30;20.30;99.90
5461;DHT22;2753;49.196;8.286;2022-09-09T11:56:56;20.30;99.90
5461;DHT22;2753;49.196;8.286;2022-09-09T11:59:23;20.30;99.90
5461;DHT22;2753;49.196;8.286;2022-09-09T12:02:02;20.30;99.90
5461;DHT22;2753;49.196;8.286;2022-09-09T12:04:37;20.10;99.60
5461;DHT22;2753;49.196;8.286;2022-09-09T12:09:46;20.00;99.90
5461;DHT22;2753;49.196;8.286;2022-09-09T12:17:21;19.80;99.90
5461;DHT22;2753;49.196;8.286;2022-09-09T12:19:48;19.80;99.80
5461;DHT22;2753;49.196;8.286;2022-09-09T12:33:19;20.00;98.70
5461;DHT22;2753;49.196;8.286;2022-09-09T12:35:51;20.00;98.90
5461;DHT22;2753;49.196;8.286;2022-09-09T12:38:39;20.00;98.90
5461;DHT22;2753;49.196;8.286;2022-09-09T12:41:05;19.90;99.10
5461;DHT22;2753;49.196;8.286;2022-09-09T12:43:31;19.80;99.10
5461;DHT22;2753;49.196;8.286;2022-09-09T12:46:03;19.70;99.10
5461;DHT22;2753;49.196;8.286;2022-09-09T12:48:39;19.80;99.50
5461;DHT22;2753;49.196;8.286;2022-09-09T12:51:18;19.80;99.30
5461;DHT22;2753;49.196;8.286;2022-09-09T12:53:44;19.70;99.80
5461;DHT22;2753;49.196;8.286;2022-09-09T12:56:19;19.70;99.90
5461;DHT22;2753;49.196;8.286;2022-09-09T12:58:47;19.60;99.90
5461;DHT22;2753;49.196;8.286;2022-09-09T13:01:23;19.20;99.80
5461;DHT22;2753;49.196;8.286;2022-09-09T13:03:49;19.10;99.40
5461;DHT22;2753;49.196;8.286;2022-09-09T13:06:24;18.80;98.80
5461;DHT22;2753;49.196;8.286;2022-09-09T13:08:51;18.70;99.10
5461;DHT22;2753;49.196;8.286;2022-09-09T13:11:22;18.80;99.00
5461;DHT22;2753;49.196;8.286;2022-09-09T13:13:54;18.80;99.40
5461;DHT22;2753;49.196;8.286;2022-09-09T13:16:29;18.90;99.30
5461;DHT22;2753;49.196;8.286;2022-09-09T13:19:01;18.90;99.00
5461;DHT22;2753;49.196;8.286;2022-09-09T13:21:34;19.00;99.90
5461;DHT22;2753;49.196;8.286;2022-09-09T13:24:01;19.20;99.70
5461;DHT22;2753;49.196;8.286;2022-09-09T13:26:29;19.30;99.50
5461;DHT22;2753;49.196;8.286;2022-09-09T13:29:07;19.20;99.90
5461;DHT22;2753;49.196;8.286;2022-09-09T13:31:36;19.30;99.90
5461;DHT22;2753;49.196;8.286;2022-09-09T13:34:32;19.40;99.90
5461;DHT22;2753;49.196;8.286;2022-09-09T13:37:24;19.50;99.90
5461;DHT22;2753;49.196;8.286;2022-09-09T13:39:53;19.70;99.80
5461;DHT22;2753;49.196;8.286;2022-09-09T13:42:25;19.90;99.60
5461;DHT22;2753;49.196;8.286;2022-09-09T13:44:52;20.00;98.70
5461;DHT22;2753;49.196;8.286;2022-09-09T13:47:20;20.10;99.40
5461;DHT22;2753;49.196;8.286;2022-09-09T13:49:47;20.20;99.30
5461;DHT22;2753;49.196;8.286;2022-09-09T13:52:15;20.20;98.90
5461;DHT22;2753;49.196;8.286;2022-09-09T13:54:42;20.30;99.00
5461;DHT22;2753;49.196;8.286;2022-09-09T13:57:34;20.50;98.70
5461;DHT22;2753;49.196;8.286;2022-09-09T14:00:01;20.50;99.20
5461;DHT22;2753;49.196;8.286;2022-09-09T14:02:26;20.60;98.70
5461;DHT22;2753;49.196;8.286;2022-09-09T14:04:52;20.70;99.10
5461;DHT22;2753;49.196;8.286;2022-09-09T14:07:20;20.70;98.60
5461;DHT22;2753;49.196;8.286;2022-09-09T14:09:46;20.80;97.40
5461;DHT22;2753;49.196;8.286;2022-09-09T14:12:16;20.90;97.30
5461;DHT22;2753;49.196;8.286;2022-09-09T14:14:42;20.90;97.70
5461;DHT22;2753;49.196;8.286;2022-09-09T14:17:08;21.00;97.80
5461;DHT22;2753;49.196;8.286;2022-09-09T14:19:35;21.00;97.70
5461;DHT22;2753;49.196;8.286;2022-09-09T14:22:00;21.00;97.30
5461;DHT22;2753;49.196;8.286;2022-09-09T14:24:29;21.00;97.40
5461;DHT22;2753;49.196;8.286;2022-09-09T14:26:55;21.00;97.40
5461;DHT22;2753;49.196;8.286;2022-09-09T14:29:20;21.00;97.00
5461;DHT22;2753;49.196;8.286;2022-09-09T14:31:46;21.00;97.30
5461;DHT22;2753;49.196;8.286;2022-09-09T14:34:12;20.90;97.20
5461;DHT22;2753;49.196;8.286;2022-09-09T14:36:40;20.90;96.30
5461;DHT22;2753;49.196;8.286;2022-09-09T14:39:07;20.80;96.80
5461;DHT22;2753;49.196;8.286;2022-09-09T14:41:32;20.80;97.00
5461;DHT22;2753;49.196;8.286;2022-09-09T14:43:58;20.80;96.80
5461;DHT22;2753;49.196;8.286;2022-09-09T14:46:25;20.80;96.80
5461;DHT22;2753;49.196;8.286;2022-09-09T14:48:52;20.80;97.30
5461;DHT22;2753;49.196;8.286;2022-09-09T14:51:21;20.80;97.10
5461;DHT22;2753;49.196;8.286;2022-09-09T14:53:54;20.80;97.00
5461;DHT22;2753;49.196;8.286;2022-09-09T14:56:23;20.80;96.80
5461;DHT22;2753;49.196;8.286;2022-09-09T14:58:49;20.70;96.90
5461;DHT22;2753;49.196;8.286;2022-09-09T15:01:19;20.70;97.10
5461;DHT22;2753;49.196;8.286;2022-09-09T15:03:53;20.60;96.80
5461;DHT22;2753;49.196;8.286;2022-09-09T15:06:20;20.70;96.80
5461;DHT22;2753;49.196;8.286;2022-09-09T15:08:47;20.80;97.00
5461;DHT22;2753;49.196;8.286;2022-09-09T15:11:14;20.90;96.90
5461;DHT22;2753;49.196;8.286;2022-09-09T15:13:41;20.90;96.70
5461;DHT22;2753;49.196;8.286;2022-09-09T15:18:35;20.90;96.60
5461;DHT22;2753;49.196;8.286;2022-09-09T15:21:05;20.90;95.90
5461;DHT22;2753;49.196;8.286;2022-09-09T15:23:32;20.90;95.70
5461;DHT22;2753;49.196;8.286;2022-09-09T15:25:58;20.90;95.50
5461;DHT22;2753;49.196;8.286;2022-09-09T15:28:24;20.90;95.30
5461;DHT22;2753;49.196;8.286;2022-09-09T15:30:51;20.90;94.60
5461;DHT22;2753;49.196;8.286;2022-09-09T15:33:20;20.90;94.70
5461;DHT22;2753;49.196;8.286;2022-09-09T15:35:47;20.90;94.60
5461;DHT22;2753;49.196;8.286;2022-09-09T15:38:13;20.90;94.90
5461;DHT22;2753;49.196;8.286;2022-09-09T15:40:39;20.80;93.30
5461;DHT22;2753;49.196;8.286;2022-09-09T15:43:06;20.80;94.00
5461;DHT22;2753;49.196;8.286;2022-09-09T15:45:33;20.80;93.10
5461;DHT22;2753;49.196;8.286;2022-09-09T15:48:01;20.70;92.90
5461;DHT22;2753;49.196;8.286;2022-09-09T15:50:27;20.60;93.40
5461;DHT22;2753;49.196;8.286;2022-09-09T15:52:56;20.70;94.00
5461;DHT22;2753;49.196;8.286;2022-09-09T15:55:21;20.80;93.90
5461;DHT22;2753;49.196;8.286;2022-09-09T15:57:49;20.80;94.40
5461;DHT22;2753;49.196;8.286;2022-09-09T16:00:15;20.70;93.60
5461;DHT22;2753;49.196;8.286;2022-09-09T16:02:41;20.70;94.00
5461;DHT22;2753;49.196;8.286;2022-09-09T16:05:08;20.70;94.20
5461;DHT22;2753;49.196;8.286;2022-09-09T16:07:33;20.60;94.30
5461;DHT22;2753;49.196;8.286;2022-09-09T16:10:00;20.50;94.80
5461;DHT22;2753;49.196;8.286;2022-09-09T16:12:26;20.50;94.80
5461;DHT22;2753;49.196;8.286;2022-09-09T16:14:51;20.50;93.90
5461;DHT22;2753;49.196;8.286;2022-09-09T16:17:17;20.50;93.90
5461;DHT22;2753;49.196;8.286;2022-09-09T16:19:44;20.50;93.50
5461;DHT22;2753;49.196;8.286;2022-09-09T16:22:11;20.40;93.30
5461;DHT22;2753;49.196;8.286;2022-09-09T16:24:36;20.40;93.40
5461;DHT22;2753;49.196;8.286;2022-09-09T16:27:02;20.40;93.80
5461;DHT22;2753;49.196;8.286;2022-09-09T16:29:28;20.40;93.60
5461;DHT22;2753;49.196;8.286;2022-09-09T16:31:54;20.40;93.60
5461;DHT22;2753;49.196;8.286;2022-09-09T16:34:20;20.30;93.50
5461;DHT22;2753;49.196;8.286;2022-09-09T16:36:47;20.30;93.60
5461;DHT22;2753;49.196;8.286;2022-09-09T16:39:22;20.30;93.50
5461;DHT22;2753;49.196;8.286;2022-09-09T16:41:48;20.20;94.10
5461;DHT22;2753;49.196;8.286;2022-09-09T16:44:16;20.00;95.00
5461;DHT22;2753;49.196;8.286;2022-09-09T16:46:44;19.80;95.20
5461;DHT22;2753;49.196;8.286;2022-09-09T16:49:13;19.70;95.60
5461;DHT22;2753;49.196;8.286;2022-09-09T16:51:42;19.60;96.10
5461;DHT22;2753;49.196;8.286;2022-09-09T16:54:10;19.60;96.70
5461;DHT22;2753;49.196;8.286;2022-09-09T16:56:38;19.50;97.30
5461;DHT22;2753;49.196;8.286;2022-09-09T16:59:08;19.40;97.50
5461;DHT22;2753;49.196;8.286;2022-09-09T17:01:37;19.40;97.70
5461;DHT22;2753;49.196;8.286;2022-09-09T17:04:05;19.30;97.80
5461;DHT22;2753;49.196;8.286;2022-09-09T17:06:32;19.40;98.00
5461;DHT22;2753;49.196;8.286;2022-09-09T17:09:02;19.30;98.10
5461;DHT22;2753;49.196;8.286;2022-09-09T17:11:29;19.40;98.10
5461;DHT22;2753;49.196;8.286;2022-09-09T17:13:56;19.40;98.20
5461;DHT22;2753;49.196;8.286;2022-09-09T17:16:24;19.30;98.50
5461;DHT22;2753;49.196;8.286;2022-09-09T17:18:53;19.10;98.60
5461;DHT22;2753;49.196;8.286;2022-09-09T17:21:22;19.10;98.80
5461;DHT22;2753;49.196;8.286;2022-09-09T17:23:50;19.00;99.10
5461;DHT22;2753;49.196;8.286;2022-09-09T17:26:18;18.90;99.50
5461;DHT22;2753;49.196;8.286;2022-09-09T17:28:45;19.00;99.50
5461;DHT22;2753;49.196;8.286;2022-09-09T17:31:12;18.90;99.60
5461;DHT22;2753;49.196;8.286;2022-09-09T17:33:40;18.90;99.60
5461;DHT22;2753;49.196;8.286;2022-09-09T17:36:19;18.80;99.70
5461;DHT22;2753;49.196;8.286;2022-09-09T17:38:45;18.70;99.90
5461;DHT22;2753;49.196;8.286;2022-09-09T17:41:15;18.60;99.90
5461;DHT22;2753;49.196;8.286;2022-09-09T17:43:41;18.50;99.90
5461;DHT22;2753;49.196;8.286;2022-09-09T17:46:09;18.70;99.90
5461;DHT22;2753;49.196;8.286;2022-09-09T17:48:36;18.70;99.70
5461;DHT22;2753;49.196;8.286;2022-09-09T17:51:06;18.70;99.70
5461;DHT22;2753;49.196;8.286;2022-09-09T17:53:45;18.60;99.80
5461;DHT22;2753;49.196;8.286;2022-09-09T17:56:14;18.70;99.80
5461;DHT22;2753;49.196;8.286;2022-09-09T17:58:40;18.70;99.90
5461;DHT22;2753;49.196;8.286;2022-09-09T18:01:11;18.70;99.80
5461;DHT22;2753;49.196;8.286;2022-09-09T18:03:41;18.70;99.90
5461;DHT22;2753;49.196;8.286;2022-09-09T18:06:11;18.70;99.60
5461;DHT22;2753;49.196;8.286;2022-09-09T18:08:42;18.70;99.70
5461;DHT22;2753;49.196;8.286;2022-09-09T18:11:08;18.60;99.80
5461;DHT22;2753;49.196;8.286;2022-09-09T18:13:34;18.40;99.90
5461;DHT22;2753;49.196;8.286;2022-09-09T18:16:00;18.40;99.90
5461;DHT22;2753;49.196;8.286;2022-09-09T18:18:27;18.50;99.90
5461;DHT22;2753;49.196;8.286;2022-09-09T18:21:01;18.50;99.90
5461;DHT22;2753;49.196;8.286;2022-09-09T18:23:28;18.60;99.90
5461;DHT22;2753;49.196;8.286;2022-09-09T18:25:54;18.60;99.90
5461;DHT22;2753;49.196;8.286;2022-09-09T18:28:20;18.60;99.90
5461;DHT22;2753;49.196;8.286;2022-09-09T18:30:45;18.70;99.90
5461;DHT22;2753;49.196;8.286;2022-09-09T18:33:11;18.70;99.90
5461;DHT22;2753;49.196;8.286;2022-09-09T18:35:37;18.60;99.90
5461;DHT22;2753;49.196;8.286;2022-09-09T18:38:03;18.60;99.90
5461;DHT22;2753;49.196;8.286;2022-09-09T18:40:32;18.50;99.90
5461;DHT22;2753;49.196;8.286;2022-09-09T18:42:57;18.40;99.90
5461;DHT22;2753;49.196;8.286;2022-09-09T18:45:23;18.40;99.90
5461;DHT22;2753;49.196;8.286;2022-09-09T18:47:49;18.40;99.90
5461;DHT22;2753;49.196;8.286;2022-09-09T18:50:15;18.40;99.90
5461;DHT22;2753;49.196;8.286;2022-09-09T18:52:41;18.40;99.90